createdAt,value
2023-05-17T00:00:06.293Z,99.99
2023-05-17T00:01:06.376Z,99.99
2023-05-17T00:02:06.268Z,99.99
2023-05-17T00:03:06.281Z,99.99
2023-05-17T00:04:06.274Z,99.99
2023-05-17T00:05:06.245Z,99.99
2023-05-17T00:06:06.267Z,99.99
2023-05-17T00:07:06.237Z,99.99
2023-05-17T00:08:06.231Z,99.99
2023-05-17T00:09:06.228Z,99.99
2023-05-17T00:10:06.214Z,99.99
2023-05-17T00:11:06.209Z,99.99
2023-05-17T00:12:06.206Z,99.99
2023-05-17T00:13:06.196Z,99.99
2023-05-17T00:14:06.193Z,99.99
2023-05-17T00:15:06.177Z,99.99
2023-05-17T00:16:06.180Z,99.99
2023-05-17T00:17:06.188Z,99.99
2023-05-17T00:18:06.284Z,99.99
2023-05-17T00:19:06.272Z,99.99
2023-05-17T00:20:06.150Z,99.99
2023-05-17T00:21:06.133Z,99.99
2023-05-17T00:22:06.135Z,99.99
2023-05-17T00:23:06.144Z,99.99
2023-05-17T00:24:06.122Z,99.99
2023-05-17T00:25:06.138Z,99.99
2023-05-17T00:26:06.117Z,99.99
2023-05-17T00:27:06.105Z,99.99
2023-05-17T00:28:06.146Z,99.99
2023-05-17T00:29:06.104Z,99.99
2023-05-17T00:30:06.092Z,99.99
2023-05-17T00:31:06.085Z,99.99
2023-05-17T00:32:06.073Z,99.99
2023-05-17T00:33:06.158Z,99.99
2023-05-17T00:34:06.057Z,99.99
2023-05-17T00:35:06.106Z,99.99
2023-05-17T00:36:06.045Z,99.99
2023-05-17T00:37:06.036Z,99.99
2023-05-17T00:38:06.051Z,99.99
2023-05-17T00:39:06.011Z,99.99
2023-05-17T00:40:06.010Z,99.99
2023-05-17T00:41:06.001Z,99.99
2023-05-17T00:42:06.003Z,99.99
2023-05-17T00:43:05.996Z,99.99
2023-05-17T00:44:06.050Z,99.99
2023-05-17T00:45:05.978Z,99.99
2023-05-17T00:46:05.982Z,99.99
2023-05-17T00:47:06.016Z,99.99
2023-05-17T00:48:06.042Z,99.99
2023-05-17T00:49:05.952Z,99.99
2023-05-17T00:50:05.940Z,99.99
2023-05-17T00:51:05.926Z,99.99
2023-05-17T00:52:05.919Z,99.99
2023-05-17T00:53:05.928Z,99.99
2023-05-17T00:54:05.919Z,99.99
2023-05-17T00:55:05.918Z,99.99
2023-05-17T00:56:05.903Z,99.99
2023-05-17T00:57:05.929Z,99.99
2023-05-17T00:58:05.889Z,99.99
2023-05-17T00:59:05.870Z,99.99
2023-05-17T01:00:05.942Z,99.99
2023-05-17T01:01:05.863Z,99.99
2023-05-17T01:02:05.862Z,99.99
2023-05-17T01:03:05.984Z,99.99
2023-05-17T01:04:05.955Z,99.99
2023-05-17T01:05:05.929Z,99.99
2023-05-17T01:06:05.830Z,99.99
2023-05-17T01:07:05.820Z,99.99
2023-05-17T01:08:05.806Z,99.99
2023-05-17T01:09:05.813Z,99.99
2023-05-17T01:10:05.799Z,99.99
2023-05-17T01:11:05.795Z,99.99
2023-05-17T01:12:05.780Z,99.99
2023-05-17T01:13:05.781Z,99.99
2023-05-17T01:14:05.784Z,99.99
2023-05-17T01:15:05.769Z,99.99
2023-05-17T01:16:05.819Z,99.99
2023-05-17T01:17:05.763Z,99.99
2023-05-17T01:18:05.816Z,99.99
2023-05-17T01:19:05.796Z,99.99
2023-05-17T01:20:05.798Z,99.99
2023-05-17T01:21:05.721Z,99.99
2023-05-17T01:22:05.718Z,99.99
2023-05-17T01:23:05.709Z,99.99
2023-05-17T01:24:05.699Z,99.99
2023-05-17T01:25:05.700Z,99.99
2023-05-17T01:26:05.698Z,99.99
2023-05-17T01:27:05.704Z,99.99
2023-05-17T01:28:05.683Z,99.99
2023-05-17T01:29:05.689Z,99.99
2023-05-17T01:30:05.666Z,99.99
2023-05-17T01:31:05.662Z,99.99
2023-05-17T01:32:05.720Z,99.99
2023-05-17T01:33:05.727Z,99.99
2023-05-17T01:34:05.632Z,99.99
2023-05-17T01:35:05.632Z,99.99
2023-05-17T01:36:05.616Z,99.99
2023-05-17T01:37:05.615Z,99.99
2023-05-17T01:38:05.611Z,99.99
2023-05-17T01:39:05.595Z,99.99
2023-05-17T01:40:05.609Z,99.99
2023-05-17T01:41:05.573Z,99.99
2023-05-17T01:42:05.572Z,99.99
2023-05-17T01:43:05.558Z,99.99
2023-05-17T01:44:05.566Z,99.99
2023-05-17T01:45:05.564Z,99.99
2023-05-17T01:46:05.552Z,99.99
2023-05-17T01:47:05.533Z,99.99
2023-05-17T01:48:05.665Z,99.99
2023-05-17T01:49:05.517Z,99.99
2023-05-17T01:50:05.511Z,99.99
2023-05-17T01:51:05.515Z,99.99
2023-05-17T01:52:05.504Z,99.99
2023-05-17T01:53:05.502Z,99.99
2023-05-17T01:54:05.496Z,99.99
2023-05-17T01:55:05.495Z,99.99
2023-05-17T01:56:05.478Z,99.99
2023-05-17T01:57:05.478Z,99.99
2023-05-17T01:58:05.460Z,99.99
2023-05-17T01:59:05.471Z,99.99
2023-05-17T02:00:05.446Z,99.99
2023-05-17T02:01:05.436Z,99.99
2023-05-17T02:02:05.421Z,99.99
2023-05-17T02:03:05.478Z,99.99
2023-05-17T02:04:05.534Z,99.99
2023-05-17T02:05:05.471Z,99.99
2023-05-17T02:06:05.404Z,99.99
2023-05-17T02:07:05.413Z,99.99
2023-05-17T02:08:05.395Z,99.99
2023-05-17T02:09:05.383Z,99.99
2023-05-17T02:10:05.388Z,99.99
2023-05-17T02:11:05.366Z,99.99
2023-05-17T02:12:05.349Z,99.99
2023-05-17T02:13:05.352Z,99.99
2023-05-17T02:14:05.339Z,99.99
2023-05-17T02:15:05.335Z,99.99
2023-05-17T02:16:05.339Z,99.99
2023-05-17T02:17:05.320Z,99.99
2023-05-17T02:18:05.355Z,99.99
2023-05-17T02:19:05.347Z,99.99
2023-05-17T02:20:05.453Z,99.99
2023-05-17T02:21:05.300Z,99.99
2023-05-17T02:22:05.282Z,99.99
2023-05-17T02:23:05.281Z,99.99
2023-05-17T02:24:05.274Z,99.99
2023-05-17T02:25:05.282Z,99.99
2023-05-17T02:26:05.253Z,99.99
2023-05-17T02:27:05.248Z,99.99
2023-05-17T02:28:05.244Z,99.99
2023-05-17T02:29:05.234Z,99.99
2023-05-17T02:30:05.224Z,99.99
2023-05-17T02:31:05.235Z,99.99
2023-05-17T02:32:05.227Z,99.99
2023-05-17T02:33:05.377Z,99.99
2023-05-17T02:34:05.227Z,99.99
2023-05-17T02:35:05.199Z,99.99
2023-05-17T02:36:05.262Z,99.99
2023-05-17T02:37:05.192Z,99.99
2023-05-17T02:38:05.183Z,99.99
2023-05-17T02:39:05.163Z,99.99
2023-05-17T02:40:05.153Z,99.99
2023-05-17T02:41:05.165Z,99.99
2023-05-17T02:42:05.148Z,99.99
2023-05-17T02:43:05.154Z,99.99
2023-05-17T02:44:05.123Z,99.99
2023-05-17T02:45:05.119Z,99.99
2023-05-17T02:46:05.109Z,99.99
2023-05-17T02:47:05.155Z,99.99
2023-05-17T02:48:05.134Z,99.99
2023-05-17T02:49:05.091Z,99.99
2023-05-17T02:50:05.077Z,99.99
2023-05-17T02:51:05.072Z,99.99
2023-05-17T02:52:05.186Z,99.99
2023-05-17T02:53:05.056Z,99.99
2023-05-17T02:54:05.044Z,99.99
2023-05-17T02:55:05.043Z,99.99
2023-05-17T02:56:05.036Z,99.99
2023-05-17T02:57:05.079Z,99.99
2023-05-17T02:58:05.014Z,99.99
2023-05-17T02:59:05.013Z,99.99
2023-05-17T03:00:05.012Z,99.99
2023-05-17T03:01:05.009Z,99.99
2023-05-17T03:02:04.987Z,99.99
2023-05-17T03:03:05.060Z,99.99
2023-05-17T03:04:05.132Z,99.99
2023-05-17T03:05:05.008Z,99.99
2023-05-17T03:06:05.044Z,99.99
2023-05-17T03:07:06.877Z,99.99
2023-05-17T03:08:05.128Z,99.99
2023-05-17T03:09:04.931Z,99.99
2023-05-17T03:10:04.938Z,99.99
2023-05-17T03:11:04.945Z,99.99
2023-05-17T03:12:04.907Z,99.99
2023-05-17T03:13:04.913Z,99.99
2023-05-17T03:14:04.912Z,99.99
2023-05-17T03:15:04.892Z,99.99
2023-05-17T03:16:04.881Z,99.99
2023-05-17T03:17:04.873Z,99.99
2023-05-17T03:18:04.988Z,99.99
2023-05-17T03:19:04.992Z,99.99
2023-05-17T03:20:04.845Z,99.99
2023-05-17T03:21:04.840Z,99.99
2023-05-17T03:22:04.831Z,99.99
2023-05-17T03:23:04.840Z,99.99
2023-05-17T03:24:04.815Z,99.99
2023-05-17T03:25:04.817Z,99.99
2023-05-17T03:26:04.811Z,99.99
2023-05-17T03:27:04.831Z,99.99
2023-05-17T03:28:04.782Z,99.99
2023-05-17T03:29:04.777Z,99.99
2023-05-17T03:30:04.766Z,99.99
2023-05-17T03:31:04.832Z,99.99
2023-05-17T03:32:04.757Z,99.99
2023-05-17T03:33:04.860Z,99.99
2023-05-17T03:34:04.813Z,99.99
2023-05-17T03:35:04.746Z,99.99
2023-05-17T03:36:04.728Z,99.99
2023-05-17T03:37:04.715Z,99.99
2023-05-17T03:38:04.710Z,99.99
2023-05-17T03:39:04.704Z,99.99
2023-05-17T03:40:04.807Z,99.99
2023-05-17T03:41:04.702Z,99.99
2023-05-17T03:42:04.670Z,99.99
2023-05-17T03:43:04.675Z,99.99
2023-05-17T03:44:04.670Z,99.99
2023-05-17T03:45:04.658Z,99.99
2023-05-17T03:46:04.643Z,99.99
2023-05-17T03:47:04.642Z,99.99
2023-05-17T03:48:04.636Z,99.99
2023-05-17T03:49:04.702Z,99.99
2023-05-17T03:50:04.616Z,99.99
2023-05-17T03:51:04.607Z,99.99
2023-05-17T03:52:04.609Z,99.99
2023-05-17T03:53:04.616Z,99.99
2023-05-17T03:54:04.587Z,99.99
2023-05-17T03:55:04.601Z,99.99
2023-05-17T03:56:04.642Z,99.99
2023-05-17T03:57:04.560Z,99.99
2023-05-17T03:58:04.563Z,99.99
2023-05-17T03:59:04.552Z,99.99
2023-05-17T04:00:04.541Z,99.99
2023-05-17T04:01:04.564Z,99.99
2023-05-17T04:02:04.540Z,99.99
2023-05-17T04:03:04.539Z,99.99
2023-05-17T04:04:04.633Z,99.99
2023-05-17T04:05:04.512Z,99.99
2023-05-17T04:06:04.502Z,99.99
2023-05-17T04:07:05.444Z,99.99
2023-05-17T04:08:04.474Z,99.99
2023-05-17T04:09:04.488Z,99.99
2023-05-17T04:10:04.460Z,99.99
2023-05-17T04:11:04.457Z,99.99
2023-05-17T04:12:04.572Z,99.99
2023-05-17T04:13:04.449Z,99.99
2023-05-17T04:14:04.442Z,99.99
2023-05-17T04:15:04.429Z,99.99
2023-05-17T04:16:04.423Z,99.99
2023-05-17T04:17:04.425Z,99.99
2023-05-17T04:18:04.431Z,99.99
2023-05-17T04:19:04.489Z,99.99
2023-05-17T04:20:04.396Z,99.99
2023-05-17T04:21:04.400Z,99.99
2023-05-17T04:22:04.372Z,99.99
2023-05-17T04:23:04.366Z,99.99
2023-05-17T04:24:04.374Z,99.99
2023-05-17T04:25:04.453Z,99.99
2023-05-17T04:26:04.349Z,99.99
2023-05-17T04:27:04.355Z,99.99
2023-05-17T04:28:04.447Z,99.99
2023-05-17T04:29:04.331Z,99.99
2023-05-17T04:30:04.330Z,99.99
2023-05-17T04:31:04.304Z,99.99
2023-05-17T04:32:04.298Z,99.99
2023-05-17T04:33:04.414Z,99.99
2023-05-17T04:34:04.342Z,99.99
2023-05-17T04:35:04.268Z,99.99
2023-05-17T04:36:04.278Z,99.99
2023-05-17T04:37:04.262Z,99.99
2023-05-17T04:38:04.247Z,99.99
2023-05-17T04:39:04.277Z,99.99
2023-05-17T04:40:04.239Z,99.99
2023-05-17T04:41:04.232Z,99.99
2023-05-17T04:42:04.230Z,99.99
2023-05-17T04:43:04.208Z,99.99
2023-05-17T04:44:04.293Z,99.99
2023-05-17T04:45:04.201Z,99.99
2023-05-17T04:46:04.196Z,99.99
2023-05-17T04:47:04.182Z,99.99
2023-05-17T04:48:04.213Z,99.99
2023-05-17T04:49:04.249Z,99.99
2023-05-17T04:50:04.165Z,99.99
2023-05-17T04:51:04.207Z,99.99
2023-05-17T04:52:06.200Z,99.99
2023-05-17T04:53:04.162Z,99.99
2023-05-17T04:54:04.134Z,99.99
2023-05-17T04:55:04.132Z,99.99
2023-05-17T04:56:04.146Z,99.99
2023-05-17T04:57:04.117Z,99.99
2023-05-17T04:58:04.107Z,99.99
2023-05-17T04:59:04.128Z,99.99
2023-05-17T05:00:04.283Z,99.99
2023-05-17T05:01:04.096Z,99.99
2023-05-17T05:02:04.092Z,99.99
2023-05-17T05:03:04.157Z,99.99
2023-05-17T05:04:04.186Z,99.99
2023-05-17T05:05:04.178Z,99.99
2023-05-17T05:06:04.061Z,99.99
2023-05-17T05:07:04.048Z,99.99
2023-05-17T05:08:04.041Z,99.99
2023-05-17T05:09:04.034Z,99.99
2023-05-17T05:10:04.071Z,99.99
2023-05-17T05:11:04.056Z,99.99
2023-05-17T05:12:04.013Z,99.99
2023-05-17T05:13:03.997Z,99.99
2023-05-17T05:14:03.982Z,99.99
2023-05-17T05:15:03.975Z,99.99
2023-05-17T05:16:04.036Z,99.99
2023-05-17T05:17:03.979Z,99.99
2023-05-17T05:18:04.052Z,99.99
2023-05-17T05:19:04.178Z,99.99
2023-05-17T05:20:03.947Z,99.99
2023-05-17T05:21:03.935Z,99.99
2023-05-17T05:22:03.937Z,99.99
2023-05-17T05:23:03.917Z,99.99
2023-05-17T05:24:03.912Z,99.99
2023-05-17T05:25:03.898Z,99.99
2023-05-17T05:26:03.896Z,99.99
2023-05-17T05:27:06.210Z,99.99
2023-05-17T05:28:03.888Z,99.99
2023-05-17T05:29:03.879Z,99.99
2023-05-17T05:30:03.869Z,99.99
2023-05-17T05:31:03.865Z,99.99
2023-05-17T05:32:03.985Z,99.99
2023-05-17T05:33:03.929Z,99.99
2023-05-17T05:34:03.885Z,99.99
2023-05-17T05:35:03.832Z,99.99
2023-05-17T05:36:03.832Z,99.99
2023-05-17T05:37:03.825Z,99.99
2023-05-17T05:38:03.813Z,99.99
2023-05-17T05:39:03.809Z,99.99
2023-05-17T05:40:04.466Z,99.99
2023-05-17T05:41:03.788Z,99.99
2023-05-17T05:42:03.785Z,99.99
2023-05-17T05:43:03.799Z,99.99
2023-05-17T05:44:03.779Z,99.99
2023-05-17T05:45:03.768Z,99.99
2023-05-17T05:46:03.756Z,99.99
2023-05-17T05:47:03.752Z,99.99
2023-05-17T05:48:03.825Z,99.99
2023-05-17T05:49:03.786Z,99.99
2023-05-17T05:50:03.728Z,99.99
2023-05-17T05:51:03.720Z,99.99
2023-05-17T05:52:03.714Z,99.99
2023-05-17T05:53:17.156Z,99.99
2023-05-17T05:54:03.693Z,99.99
2023-05-17T05:55:03.698Z,99.99
2023-05-17T05:56:03.682Z,99.99
2023-05-17T05:57:03.683Z,99.99
2023-05-17T05:58:03.681Z,99.99
2023-05-17T05:59:03.695Z,99.99
2023-05-17T06:00:03.658Z,99.99
2023-05-17T06:01:06.128Z,99.99
2023-05-17T06:02:03.647Z,99.99
2023-05-17T06:03:03.684Z,99.99
2023-05-17T06:04:03.697Z,99.99
2023-05-17T06:05:03.624Z,99.99
2023-05-17T06:06:03.745Z,99.99
2023-05-17T06:07:03.672Z,99.99
2023-05-17T06:08:03.601Z,99.99
2023-05-17T06:09:03.599Z,99.99
2023-05-17T06:10:03.588Z,99.99
2023-05-17T06:11:03.604Z,99.99
2023-05-17T06:12:03.589Z,99.99
2023-05-17T06:13:03.580Z,99.99
2023-05-17T06:14:03.565Z,99.99
2023-05-17T06:15:03.559Z,99.99
2023-05-17T06:16:03.571Z,99.99
2023-05-17T06:17:03.537Z,99.99
2023-05-17T06:18:03.591Z,99.99
2023-05-17T06:19:03.669Z,99.99
2023-05-17T06:20:03.776Z,99.99
2023-05-17T06:21:03.520Z,99.99
2023-05-17T06:22:03.512Z,99.99
2023-05-17T06:23:03.513Z,99.99
2023-05-17T06:24:05.072Z,99.99
2023-05-17T06:25:03.487Z,99.99
2023-05-17T06:26:03.490Z,99.99
2023-05-17T06:27:03.491Z,99.99
2023-05-17T06:28:03.470Z,99.99
2023-05-17T06:29:03.464Z,99.99
2023-05-17T06:30:05.531Z,99.99
2023-05-17T06:31:03.447Z,99.99
2023-05-17T06:32:03.441Z,99.99
2023-05-17T06:33:03.480Z,99.99
2023-05-17T06:34:03.500Z,99.99
2023-05-17T06:35:03.423Z,99.99
2023-05-17T06:37:03.404Z,99.99
2023-05-17T06:38:03.404Z,99.99
2023-05-17T06:39:03.392Z,99.99
2023-05-17T06:40:10.327Z,99.99
2023-05-17T06:41:03.420Z,99.99
2023-05-17T06:42:03.380Z,99.99
2023-05-17T06:43:03.361Z,99.99
2023-05-17T06:44:03.357Z,99.99
2023-05-17T06:45:03.359Z,99.99
2023-05-17T06:46:03.351Z,99.99
2023-05-17T06:47:03.330Z,99.99
2023-05-17T06:48:03.413Z,99.99
2023-05-17T06:49:03.438Z,99.99
2023-05-17T06:50:03.357Z,99.99
2023-05-17T06:51:03.335Z,99.99
2023-05-17T06:52:03.607Z,99.99
2023-05-17T06:53:03.291Z,99.99
2023-05-17T06:54:03.290Z,99.99
2023-05-17T06:55:03.291Z,99.99
2023-05-17T06:56:03.277Z,99.99
2023-05-17T06:57:03.301Z,99.99
2023-05-17T06:58:03.259Z,99.99
2023-05-17T06:59:03.262Z,99.99
2023-05-17T07:00:03.276Z,99.99
2023-05-17T07:01:03.245Z,99.99
2023-05-17T07:02:03.251Z,99.99
2023-05-17T07:03:03.310Z,99.99
2023-05-17T07:04:04.235Z,99.99
2023-05-17T07:05:04.238Z,99.99
2023-05-17T07:06:03.247Z,99.99
2023-05-17T07:07:03.221Z,99.99
2023-05-17T07:08:03.279Z,99.99
2023-05-17T07:09:03.179Z,99.99
2023-05-17T07:10:03.179Z,99.99
2023-05-17T07:11:03.189Z,99.99
2023-05-17T07:12:03.156Z,99.99
2023-05-17T07:13:03.177Z,99.99
2023-05-17T07:14:03.151Z,99.99
2023-05-17T07:15:03.146Z,99.99
2023-05-17T07:16:03.135Z,99.99
2023-05-17T07:17:03.132Z,99.99
2023-05-17T07:18:03.351Z,99.99
2023-05-17T07:19:03.170Z,99.99
2023-05-17T07:20:03.348Z,99.99
2023-05-17T07:21:03.106Z,99.99
2023-05-17T07:22:03.113Z,99.99
2023-05-17T07:23:03.102Z,99.99
2023-05-17T07:24:03.158Z,99.99
2023-05-17T07:25:03.274Z,99.99
2023-05-17T07:26:03.070Z,99.99
2023-05-17T07:27:03.073Z,99.99
2023-05-17T07:28:03.066Z,99.99
2023-05-17T07:29:03.074Z,99.99
2023-05-17T07:30:03.048Z,99.99
2023-05-17T07:31:03.053Z,99.99
2023-05-17T07:32:03.038Z,99.99
2023-05-17T07:33:03.061Z,99.99
2023-05-17T07:34:03.052Z,99.99
2023-05-17T07:35:03.044Z,99.99
2023-05-17T07:36:03.078Z,99.99
2023-05-17T07:37:03.013Z,99.99
2023-05-17T07:38:03.179Z,99.99
2023-05-17T07:39:03.006Z,99.99
2023-05-17T07:40:03.046Z,99.99
2023-05-17T07:41:02.984Z,99.99
2023-05-17T07:42:05.328Z,99.99
2023-05-17T07:43:02.985Z,99.99
2023-05-17T07:44:02.964Z,99.99
2023-05-17T07:45:02.974Z,99.99
2023-05-17T07:46:02.962Z,99.99
2023-05-17T07:47:02.990Z,99.99
2023-05-17T07:48:03.004Z,99.99
2023-05-17T07:49:03.101Z,99.99
2023-05-17T07:50:02.936Z,99.99
2023-05-17T07:51:02.922Z,99.99
2023-05-17T07:52:02.933Z,99.99
2023-05-17T07:53:02.911Z,99.99
2023-05-17T07:54:02.905Z,99.99
2023-05-17T07:55:02.894Z,99.99
2023-05-17T07:56:02.898Z,99.99
2023-05-17T07:57:02.906Z,99.99
2023-05-17T07:58:02.895Z,99.99
2023-05-17T07:59:02.939Z,99.99
2023-05-17T08:00:02.864Z,99.99
2023-05-17T08:01:02.867Z,99.99
2023-05-17T08:02:02.857Z,99.99
2023-05-17T08:03:02.924Z,99.99
2023-05-17T08:04:02.893Z,99.99
2023-05-17T08:05:02.843Z,99.99
2023-05-17T08:06:02.873Z,99.99
2023-05-17T08:07:02.830Z,99.99
2023-05-17T08:08:02.825Z,99.99
2023-05-17T08:09:02.856Z,99.99
2023-05-17T08:10:02.829Z,99.99
2023-05-17T08:11:02.801Z,99.99
2023-05-17T08:12:02.854Z,99.99
2023-05-17T08:13:02.796Z,99.99
2023-05-17T08:14:02.795Z,99.99
2023-05-17T08:15:02.778Z,99.99
2023-05-17T08:16:12.657Z,99.99
2023-05-17T08:17:02.772Z,99.99
2023-05-17T08:18:04.808Z,99.99
2023-05-17T08:19:02.956Z,99.99
2023-05-17T08:20:02.796Z,99.99
2023-05-17T08:21:02.750Z,99.99
2023-05-17T08:22:02.766Z,99.99
2023-05-17T08:23:02.808Z,99.99
2023-05-17T08:24:04.106Z,99.99
2023-05-17T08:25:02.745Z,99.99
2023-05-17T08:26:02.719Z,99.99
2023-05-17T08:27:02.729Z,99.99
2023-05-17T08:28:02.705Z,99.99
2023-05-17T08:29:02.706Z,99.99
2023-05-17T08:30:04.119Z,99.99
2023-05-17T08:31:02.705Z,99.99
2023-05-17T08:32:02.680Z,99.99
2023-05-17T08:33:02.781Z,99.99
2023-05-17T08:34:02.715Z,99.99
2023-05-17T08:35:02.718Z,99.99
2023-05-17T08:36:02.682Z,99.99
2023-05-17T08:37:02.682Z,99.99
2023-05-17T08:38:02.662Z,99.99
2023-05-17T08:39:02.662Z,99.99
2023-05-17T08:40:02.687Z,99.99
2023-05-17T08:41:02.640Z,99.99
2023-05-17T08:42:02.661Z,99.99
2023-05-17T08:43:02.628Z,99.99
2023-05-17T08:44:02.716Z,99.99
2023-05-17T08:45:02.639Z,99.99
2023-05-17T08:46:02.614Z,99.99
2023-05-17T08:47:02.606Z,99.99
2023-05-17T08:48:02.661Z,99.99
2023-05-17T08:49:02.906Z,99.99
2023-05-17T08:50:02.596Z,99.99
2023-05-17T08:51:02.621Z,99.99
2023-05-17T08:52:02.575Z,99.99
2023-05-17T08:53:02.616Z,99.99
2023-05-17T08:54:02.566Z,99.99
2023-05-17T08:55:02.607Z,99.99
2023-05-17T08:56:02.613Z,99.90
2023-05-17T08:57:02.572Z,99.99
2023-05-17T08:58:02.615Z,99.99
2023-05-17T08:59:02.548Z,99.99
2023-05-17T09:00:02.655Z,99.33
2023-05-17T09:01:02.539Z,99.99
2023-05-17T09:02:02.576Z,99.99
2023-05-17T09:03:02.599Z,99.04
2023-05-17T09:04:02.519Z,99.43
2023-05-17T09:05:02.731Z,97.95
2023-05-17T09:06:02.552Z,97.08
2023-05-17T09:07:02.501Z,97.18
2023-05-17T09:08:02.510Z,96.61
2023-05-17T09:09:02.499Z,96.61
2023-05-17T09:10:02.511Z,96.94
2023-05-17T09:11:02.501Z,95.98
2023-05-17T09:12:02.472Z,95.79
2023-05-17T09:13:02.468Z,94.36
2023-05-17T09:14:02.471Z,94.12
2023-05-17T09:15:02.470Z,93.45
2023-05-17T09:16:02.503Z,90.86
2023-05-17T09:17:02.458Z,92.11
2023-05-17T09:18:02.641Z,89.33
2023-05-17T09:19:02.532Z,89.33
2023-05-17T09:20:02.495Z,89.43
2023-05-17T09:21:02.443Z,90.72
2023-05-17T09:22:02.463Z,90.63
2023-05-17T09:23:02.428Z,89.00
2023-05-17T09:24:07.152Z,89.76
2023-05-17T09:25:02.420Z,91.11
2023-05-17T09:26:02.409Z,91.58
2023-05-17T09:27:02.424Z,91.58
2023-05-17T09:28:02.407Z,91.49
2023-05-17T09:29:02.416Z,91.97
2023-05-17T09:30:02.443Z,90.63
2023-05-17T09:31:02.392Z,90.53
2023-05-17T09:32:02.390Z,90.82
2023-05-17T09:33:02.387Z,90.15
2023-05-17T09:34:02.508Z,89.62
2023-05-17T09:35:02.382Z,88.76
2023-05-17T09:36:02.375Z,88.43
2023-05-17T09:37:02.374Z,87.13
2023-05-17T09:38:02.377Z,86.94
2023-05-17T09:39:02.424Z,87.65
2023-05-17T09:40:02.375Z,87.17
2023-05-17T09:41:02.368Z,84.97
2023-05-17T09:42:02.357Z,85.30
2023-05-17T09:43:02.392Z,83.95
2023-05-17T09:44:02.344Z,84.53
2023-05-17T09:45:02.341Z,84.30
2023-05-17T09:46:02.333Z,84.49
2023-05-17T09:47:02.334Z,84.20
2023-05-17T09:48:02.492Z,84.58
2023-05-17T09:49:02.494Z,85.11
2023-05-17T09:50:02.344Z,85.30
2023-05-17T09:51:02.345Z,83.86
2023-05-17T09:52:02.327Z,84.34
2023-05-17T09:53:02.318Z,84.86
2023-05-17T09:54:02.321Z,82.56
2023-05-17T09:55:02.368Z,81.95
2023-05-17T09:56:02.331Z,82.04
2023-05-17T09:57:02.315Z,83.05
2023-05-17T09:58:02.302Z,83.05
2023-05-17T09:59:02.311Z,83.92
2023-05-17T10:00:02.301Z,86.69
2023-05-17T10:01:02.314Z,86.69
2023-05-17T10:02:02.321Z,87.27
2023-05-17T10:03:02.474Z,87.31
2023-05-17T10:04:02.562Z,83.09
2023-05-17T10:05:02.393Z,83.09
2023-05-17T10:06:02.296Z,81.98
2023-05-17T10:07:02.289Z,83.14
2023-05-17T10:08:02.283Z,83.52
2023-05-17T10:09:02.288Z,82.21
2023-05-17T10:10:02.304Z,81.74
2023-05-17T10:11:02.313Z,81.64
2023-05-17T10:12:02.269Z,81.22
2023-05-17T10:13:02.267Z,81.41
2023-05-17T10:14:02.266Z,80.55
2023-05-17T10:15:02.315Z,81.60
2023-05-17T10:16:02.256Z,82.56
2023-05-17T10:17:02.265Z,81.54
2023-05-17T10:18:02.379Z,81.84
2023-05-17T10:19:02.343Z,81.84
2023-05-17T10:20:02.382Z,80.58
2023-05-17T10:21:02.261Z,80.26
2023-05-17T10:22:21.230Z,81.26
2023-05-17T10:23:02.245Z,81.45
2023-05-17T10:24:02.244Z,82.51
2023-05-17T10:25:02.255Z,81.74
2023-05-17T10:26:02.245Z,80.74
2023-05-17T10:27:02.262Z,81.31
2023-05-17T10:28:02.247Z,81.79
2023-05-17T10:29:02.277Z,80.68
2023-05-17T10:30:02.247Z,79.05
2023-05-17T10:31:02.228Z,79.63
2023-05-17T10:32:02.231Z,76.75
2023-05-17T10:33:02.412Z,76.94
2023-05-17T10:34:02.310Z,78.70
2023-05-17T10:35:11.419Z,79.19
2023-05-17T10:36:02.246Z,77.17
2023-05-17T10:37:02.227Z,76.88
2023-05-17T10:38:02.223Z,79.61
2023-05-17T10:39:02.223Z,78.69
2023-05-17T10:40:02.236Z,78.59
2023-05-17T10:41:02.347Z,78.44
2023-05-17T10:43:02.215Z,75.02
2023-05-17T10:44:02.219Z,75.21
2023-05-17T10:45:02.309Z,74.05
2023-05-17T10:46:02.219Z,74.54
2023-05-17T10:47:02.244Z,75.07
2023-05-17T10:48:02.292Z,75.07
2023-05-17T10:49:02.386Z,75.71
2023-05-17T10:50:02.219Z,77.15
2023-05-17T10:51:02.252Z,77.78
2023-05-17T10:52:02.295Z,77.46
2023-05-17T10:53:02.231Z,77.26
2023-05-17T10:54:02.218Z,76.65
2023-05-17T10:55:02.218Z,78.67
2023-05-17T10:56:02.231Z,79.96
2023-05-17T10:57:02.222Z,79.57
2023-05-17T10:58:02.224Z,80.57
2023-05-17T10:59:02.219Z,76.96
2023-05-17T11:00:02.220Z,76.57
2023-05-17T11:01:02.212Z,76.29
2023-05-17T11:02:02.211Z,76.29
2023-05-17T11:03:02.265Z,76.96
2023-05-17T11:04:02.208Z,74.94
2023-05-17T11:05:02.431Z,72.25
2023-05-17T11:06:02.313Z,73.98
2023-05-17T11:07:05.169Z,73.60
2023-05-17T11:08:02.221Z,73.88
2023-05-17T11:09:02.211Z,76.77
2023-05-17T11:10:02.204Z,73.79
2023-05-17T11:11:02.216Z,74.81
2023-05-17T11:12:02.222Z,75.92
2023-05-17T11:13:02.215Z,76.40
2023-05-17T11:14:02.210Z,76.65
2023-05-17T11:15:02.208Z,76.14
2023-05-17T11:16:02.218Z,76.90
2023-05-17T11:17:02.218Z,79.68
2023-05-17T11:18:02.278Z,80.49
2023-05-17T11:19:02.364Z,78.77
2023-05-17T11:20:02.433Z,78.00
2023-05-17T11:21:02.397Z,78.09
2023-05-17T11:22:02.206Z,79.05
2023-05-17T11:23:02.221Z,78.47
2023-05-17T11:24:02.208Z,79.24
2023-05-17T11:25:02.214Z,79.53
2023-05-17T11:26:12.867Z,78.77
2023-05-17T11:27:02.210Z,78.77
2023-05-17T11:28:02.218Z,78.38
2023-05-17T11:29:02.250Z,78.57
2023-05-17T11:30:02.205Z,77.61
2023-05-17T11:31:02.193Z,77.13
2023-05-17T11:32:02.209Z,76.27
2023-05-17T11:33:02.234Z,75.79
2023-05-17T11:34:02.222Z,76.46
2023-05-17T11:35:02.193Z,76.27
2023-05-17T11:36:02.187Z,76.07
2023-05-17T11:37:02.189Z,76.27
2023-05-17T11:38:02.187Z,76.27
2023-05-17T11:39:08.004Z,76.27
2023-05-17T11:40:02.199Z,76.94
2023-05-17T11:41:02.665Z,77.33
2023-05-17T11:42:02.189Z,77.51
2023-05-17T11:43:02.165Z,77.65
2023-05-17T11:44:02.168Z,75.35
2023-05-17T11:45:02.200Z,74.48
2023-05-17T11:46:02.156Z,75.15
2023-05-17T11:47:02.206Z,73.10
2023-05-17T11:48:02.246Z,72.81
2023-05-17T11:49:02.157Z,73.10
2023-05-17T11:50:02.146Z,73.20
2023-05-17T11:51:02.605Z,75.12
2023-05-17T11:52:02.139Z,76.17
2023-05-17T11:53:02.138Z,75.40
2023-05-17T11:54:02.136Z,77.23
2023-05-17T11:55:02.156Z,76.56
2023-05-17T11:56:02.193Z,76.40
2023-05-17T11:57:02.127Z,75.82
2023-05-17T11:58:02.150Z,76.02
2023-05-17T11:59:02.132Z,76.79
2023-05-17T12:00:02.109Z,76.50
2023-05-17T12:01:02.122Z,78.80
2023-05-17T12:02:02.108Z,77.56
2023-05-17T12:03:02.166Z,76.79
2023-05-17T12:04:02.189Z,77.08
2023-05-17T12:05:02.238Z,76.98
2023-05-17T12:06:02.129Z,79.13
2023-05-17T12:07:02.088Z,75.20
2023-05-17T12:08:02.080Z,76.25
2023-05-17T12:09:02.089Z,73.94
2023-05-17T12:10:02.081Z,73.04
2023-05-17T12:11:02.102Z,72.37
2023-05-17T12:12:02.070Z,75.29
2023-05-17T12:13:02.064Z,74.19
2023-05-17T12:14:02.062Z,75.45
2023-05-17T12:15:02.068Z,74.44
2023-05-17T12:16:02.073Z,74.44
2023-05-17T12:17:02.058Z,76.07
2023-05-17T12:18:02.090Z,75.79
2023-05-17T12:19:02.250Z,74.44
2023-05-17T12:20:02.117Z,74.58
2023-05-17T12:21:02.044Z,76.21
2023-05-17T12:22:02.034Z,74.19
2023-05-17T12:23:02.038Z,75.45
2023-05-17T12:24:02.022Z,76.12
2023-05-17T12:25:02.039Z,75.06
2023-05-17T12:26:02.024Z,76.50
2023-05-17T12:27:02.016Z,77.11
2023-05-17T12:28:02.005Z,76.25
2023-05-17T12:29:02.004Z,74.33
2023-05-17T12:30:02.001Z,75.87
2023-05-17T12:31:02.004Z,75.57
2023-05-17T12:32:01.991Z,76.06
2023-05-17T12:33:02.043Z,75.29
2023-05-17T12:34:02.050Z,74.23
2023-05-17T12:35:01.988Z,73.94
2023-05-17T12:36:01.987Z,74.52
2023-05-17T12:37:01.969Z,72.75
2023-05-17T12:38:01.968Z,75.54
2023-05-17T12:39:02.035Z,76.92
2023-05-17T12:40:01.969Z,74.33
2023-05-17T12:41:01.979Z,72.56
2023-05-17T12:42:01.958Z,74.58
2023-05-17T12:43:01.999Z,76.15
2023-05-17T12:44:13.538Z,76.34
2023-05-17T12:45:01.955Z,76.34
2023-05-17T12:46:03.729Z,76.06
2023-05-17T12:47:01.949Z,73.27
2023-05-17T12:48:01.939Z,72.28
2023-05-17T12:49:01.961Z,75.38
2023-05-17T12:50:01.920Z,75.38
2023-05-17T12:51:01.922Z,73.81
2023-05-17T12:52:01.918Z,74.71
2023-05-17T12:53:01.925Z,76.25
2023-05-17T12:54:01.911Z,74.33